Time;durP1;ratioP1;P1;durP2;ratioP2;P2;SDS_P1;SDS_P2;PMS_P1;PMS_P2;Temp;Humidity;BMP_temperature;BMP_pressure;BME280_temperature;BME280_humidity;BME280_pressure;Samples;Min_cycle;Max_cycle;Signal;HPM_P1;HPM_P2
2022/11/17 00:00:09;;;;;;;3.27;3.07;;;;;;;9.43;67.07;99896.00;5026869;27;97122;-82
2022/11/17 00:02:35;;;;;;;2.37;2.23;;;;;;;9.42;66.97;99897.97;5038299;27;97551;-83
2022/11/17 00:05:01;;;;;;;2.80;2.60;;;;;;;9.42;67.07;99897.97;5015391;27;96798;-83
2022/11/17 00:07:26;;;;;;;2.57;2.37;;;;;;;9.44;67.04;99897.47;5020820;27;96714;-84
2022/11/17 00:09:52;;;;;;;2.53;2.37;;;;;;;9.43;66.83;99906.97;5031649;27;96941;-83
2022/11/17 00:15:01;;;;;;;3.93;1.90;;;;;;;9.39;66.77;99885.25;5041363;27;99988;-80
2022/11/17 00:17:27;;;;;;;2.60;2.40;;;;;;;9.35;66.81;99862.81;5016993;27;96666;-84
2022/11/17 00:22:37;;;;;;;2.33;2.23;;;;;;;9.24;66.91;99864.84;5020671;27;100414;-84
2022/11/17 00:25:03;;;;;;;2.93;2.73;;;;;;;9.25;66.94;99863.59;4999875;27;98600;-81
2022/11/17 00:27:28;;;;;;;2.50;2.30;;;;;;;9.22;67.00;99856.38;5024024;27;97177;-82
2022/11/17 00:29:53;;;;;;;2.90;2.03;;;;;;;9.18;67.15;99844.88;5039458;27;97678;-83
2022/11/17 00:35:04;;;;;;;1.70;1.60;;;;;;;9.21;67.04;99852.13;5041050;27;100019;-80
2022/11/17 00:37:34;;;;;;;3.50;2.37;;;;;;;9.16;66.71;99844.63;5023250;27;97062;-81
2022/11/17 00:40:00;;;;;;;1.60;1.50;;;;;;;9.16;67.17;99855.59;5033537;27;97227;-81
2022/11/17 00:42:25;;;;;;;2.50;2.30;;;;;;;9.16;66.97;99850.13;5040225;27;97644;-80
2022/11/17 00:44:51;;;;;;;2.07;1.87;;;;;;;9.13;66.83;99843.63;5024547;27;97425;-82
2022/11/17 00:47:16;;;;;;;2.00;1.90;;;;;;;9.12;67.04;99844.16;5042213;27;96935;-81
2022/11/17 00:49:42;;;;;;;1.97;1.83;;;;;;;9.13;66.90;99838.16;4975127;27;1495135;-82
2022/11/17 00:52:08;;;;;;;2.70;2.10;;;;;;;9.19;66.86;99846.38;5023701;27;97317;-85
2022/11/17 00:54:34;;;;;;;2.27;2.07;;;;;;;9.22;66.77;99842.66;5016252;27;96917;-83
2022/11/17 00:57:00;;;;;;;2.33;2.17;;;;;;;9.20;66.50;99828.66;5019424;27;96933;-84
2022/11/17 00:59:25;;;;;;;2.00;1.90;;;;;;;9.18;66.77;99815.44;5020968;27;96599;-82
2022/11/17 01:01:51;;;;;;;2.07;1.97;;;;;;;9.19;66.63;99810.72;5040780;27;96824;-83
2022/11/17 01:04:16;;;;;;;1.87;1.77;;;;;;;9.15;66.56;99823.94;5025966;27;96941;-82
2022/11/17 01:06:45;;;;;;;1.60;1.50;;;;;;;9.14;66.81;99814.22;5020849;27;97027;-82
2022/11/17 01:09:16;;;;;;;2.07;1.83;;;;;;;9.17;66.74;99807.72;5039977;27;97025;-82
2022/11/17 01:11:43;;;;;;;1.37;1.27;;;;;;;9.15;66.71;99800.00;5012149;27;99750;-83
2022/11/17 01:14:19;;;;;;;1.60;1.50;;;;;;;9.18;66.46;99800.97;5007378;28;96804;-82
2022/11/17 01:16:44;;;;;;;1.70;1.60;;;;;;;9.16;66.63;99800.72;5020773;27;99121;-83
2022/11/17 01:19:12;;;;;;;1.60;1.50;;;;;;;9.12;66.70;99794.75;5039321;27;96943;-83
2022/11/17 01:21:38;;;;;;;1.50;1.40;;;;;;;9.12;66.64;99797.50;5032308;27;100741;-83
2022/11/17 01:24:04;;;;;;;1.50;1.40;;;;;;;9.10;66.56;99791.78;5021968;27;97687;-83
2022/11/17 01:26:33;;;;;;;1.30;1.20;;;;;;;9.17;66.54;99778.31;5023959;27;96439;-86
2022/11/17 01:29:01;;;;;;;1.20;1.13;;;;;;;9.13;66.52;99818.94;5026369;27;97014;-84
2022/11/17 01:31:29;;;;;;;1.03;1.03;;;;;;;9.12;66.54;99783.78;5021013;27;99690;-83
2022/11/17 01:33:54;;;;;;;1.80;1.70;;;;;;;9.12;66.43;99772.81;5019156;27;100990;-81
2022/11/17 01:37:17;;;;;;;1.20;1.20;;;;;;;9.12;66.48;99772.81;5024935;27;97350;-84
2022/11/17 01:39:24;;;;;;;4.60;1.27;;;;;;;9.09;66.32;99769.06;5036200;27;96867;-83
2022/11/17 01:41:51;;;;;;;1.40;1.30;;;;;;;9.10;66.43;99750.63;5023265;27;97945;-84
2022/11/17 01:44:35;;;;;;;1.27;1.27;;;;;;;9.04;66.47;99743.16;5013406;27;97166;-81
2022/11/17 01:47:03;;;;;;;1.93;1.63;;;;;;;9.05;66.50;99750.13;5038223;27;97026;-83
2022/11/17 01:49:29;;;;;;;1.70;1.60;;;;;;;9.09;66.48;99736.16;5034432;27;96937;-89
2022/11/17 01:52:03;;;;;;;1.40;1.30;;;;;;;9.07;66.50;99744.13;5008796;27;96770;-84
2022/11/17 01:54:31;;;;;;;1.73;1.63;;;;;;;9.08;66.49;99734.66;5010018;27;97962;-82
2022/11/17 01:57:02;;;;;;;1.17;1.13;;;;;;;9.05;66.42;99730.94;5023505;27;97282;-85
2022/11/17 01:59:50;;;;;;;1.87;1.77;;;;;;;9.06;66.33;99715.94;5034175;27;97181;-84
2022/11/17 02:02:16;;;;;;;1.60;1.50;;;;;;;9.03;66.63;99732.69;5040141;27;97625;-84
2022/11/17 02:04:52;;;;;;;2.03;1.93;;;;;;;9.06;66.52;99734.44;5044032;27;97219;-83
2022/11/17 02:07:38;;;;;;;3.03;2.13;;;;;;;9.03;66.56;99719.72;5022214;27;96876;-86
2022/11/17 02:10:04;;;;;;;1.80;1.70;;;;;;;9.04;66.41;99707.47;5012612;27;97389;-83
2022/11/17 02:12:31;;;;;;;1.70;1.60;;;;;;;9.07;66.52;99705.72;5007877;28;98679;-84
2022/11/17 02:14:57;;;;;;;2.37;2.20;;;;;;;9.01;66.59;99703.03;5030414;27;98823;-85
2022/11/17 02:17:32;;;;;;;2.40;2.20;;;;;;;9.00;66.57;99717.22;5028572;27;96751;-84
2022/11/17 02:20:09;;;;;;;2.03;1.93;;;;;;;9.02;66.52;99704.50;5021672;27;97026;-85
2022/11/17 02:22:35;;;;;;;2.23;2.13;;;;;;;8.93;66.58;99695.81;5023040;27;102937;-83
2022/11/17 02:25:37;;;;;;;1.87;1.77;;;;;;;8.89;66.78;99717.25;5028683;27;96893;-82
2022/11/17 02:28:36;;;;;;;1.87;1.77;;;;;;;8.90;66.82;99718.75;5023349;28;96791;-84
2022/11/17 02:31:20;;;;;;;2.40;2.30;;;;;;;8.97;66.61;99701.78;4988040;28;99081;-82
2022/11/17 02:33:56;;;;;;;2.20;2.07;;;;;;;8.98;66.54;99706.75;5031785;27;102186;-83
2022/11/17 02:36:37;;;;;;;2.43;2.10;;;;;;;8.99;66.58;99688.31;5040964;27;101264;-82
2022/11/17 02:39:21;;;;;;;2.60;2.43;;;;;;;8.99;66.51;99686.31;5022410;27;96958;-84
2022/11/17 02:42:09;;;;;;;2.30;2.20;;;;;;;9.01;66.50;99666.59;5020308;27;96700;-83
2022/11/17 02:44:49;;;;;;;2.50;2.30;;;;;;;9.02;66.57;99666.09;5015492;27;100995;-84
2022/11/17 02:47:28;;;;;;;3.23;2.40;;;;;;;9.01;66.32;99663.88;5038083;27;97382;-82
2022/11/17 02:50:04;;;;;;;2.90;2.60;;;;;;;8.98;66.43;99670.34;5010998;27;97580;-84
2022/11/17 02:52:30;;;;;;;2.37;2.27;;;;;;;8.99;66.49;99649.91;5022208;27;96926;-83
2022/11/17 02:55:05;;;;;;;3.30;3.00;;;;;;;8.98;66.33;99654.66;5058511;27;98654;-84
2022/11/17 02:57:33;;;;;;;2.70;2.50;;;;;;;8.99;66.38;99664.38;5010174;27;98660;-84
2022/11/17 03:00:03;;;;;;;3.00;2.80;;;;;;;9.02;66.40;99668.84;5023334;27;97232;-85
2022/11/17 03:02:47;;;;;;;2.80;2.60;;;;;;;9.08;66.47;99646.88;5014346;27;97354;-86
2022/11/17 03:05:24;;;;;;;2.60;2.40;;;;;;;9.06;66.26;99652.84;5020321;27;101890;-83
2022/11/17 03:08:27;;;;;;;3.47;3.10;;;;;;;9.07;66.22;99648.88;5038965;27;101869;-84
2022/11/17 03:11:04;;;;;;;2.40;2.30;;;;;;;9.08;66.34;99646.88;5028722;27;96863;-83
2022/11/17 03:13:50;;;;;;;5.87;2.97;;;;;;;9.06;65.95;99622.69;5036182;27;96857;-85
2022/11/17 03:17:00;;;;;;;3.03;2.83;;;;;;;9.02;66.16;99624.94;5036447;27;97612;-81
2022/11/17 03:19:36;;;;;;;3.77;3.47;;;;;;;8.98;66.27;99627.22;5037671;27;102109;-82
2022/11/17 03:22:05;;;;;;;4.70;3.70;;;;;;;8.97;66.30;99624.97;5032229;27;97747;-82
2022/11/17 03:24:35;;;;;;;4.17;3.67;;;;;;;8.91;66.35;99621.53;5019451;28;97469;-83
2022/11/17 03:27:25;;;;;;;3.50;3.20;;;;;;;8.94;66.46;99610.28;5027642;27;102694;-82
2022/11/17 03:29:56;;;;;;;3.80;3.40;;;;;;;8.98;66.30;99605.28;5016459;27;101779;-84
2022/11/17 03:32:23;;;;;;;3.87;3.57;;;;;;;8.97;66.29;99624.97;5030195;27;96834;-83
2022/11/17 03:34:57;;;;;;;3.77;3.37;;;;;;;8.98;66.29;99621.72;5026492;27;97142;-83
2022/11/17 03:37:27;;;;;;;5.17;4.23;;;;;;;8.95;66.15;99611.75;5023379;27;99682;-83
2022/11/17 03:40:00;;;;;;;4.67;4.27;;;;;;;8.92;66.13;99617.53;5039064;27;97300;-84
2022/11/17 03:42:29;;;;;;;3.70;3.40;;;;;;;8.88;66.09;99615.06;5032956;27;97337;-83
2022/11/17 03:45:26;;;;;;;5.37;3.97;;;;;;;8.88;66.50;99600.59;5010553;27;97212;-85
2022/11/17 03:48:06;;;;;;;3.63;3.30;;;;;;;8.88;66.51;99595.84;5023545;27;100662;-85
2022/11/17 03:50:39;;;;;;;4.17;3.80;;;;;;;8.89;66.18;99602.81;5010119;27;102744;-85
2022/11/17 03:53:05;;;;;;;3.90;3.60;;;;;;;8.90;66.31;99604.31;5039893;27;96824;-85
2022/11/17 03:55:46;;;;;;;4.07;3.70;;;;;;;8.90;66.15;99601.56;5036754;27;97129;-85
2022/11/17 03:58:16;;;;;;;4.73;4.20;;;;;;;8.88;66.19;99598.59;5034892;27;102741;-85
2022/11/17 04:00:43;;;;;;;4.53;4.13;;;;;;;8.86;66.24;99598.34;5036349;27;99602;-83
2022/11/17 04:03:08;;;;;;;6.00;4.43;;;;;;;8.85;66.21;99588.63;5028428;27;96954;-83
2022/11/17 04:05:34;;;;;;;5.43;4.50;;;;;;;8.81;66.15;99590.91;5016314;27;96853;-82
2022/11/17 04:07:59;;;;;;;9.50;4.30;;;;;;;8.79;66.43;99598.88;5021308;27;97030;-84
2022/11/17 04:10:25;;;;;;;5.77;4.47;;;;;;;8.73;66.32;99589.94;5015726;27;97559;-86
2022/11/17 04:18:21;;;;;;;4.73;4.20;;;;;;;8.70;66.30;99585.47;5024145;27;100298;-86
2022/11/17 04:20:55;;;;;;;4.60;4.20;;;;;;;8.72;66.22;99596.66;5020205;27;98527;-85
2022/11/17 04:23:21;;;;;;;5.53;4.77;;;;;;;8.73;66.30;99561.78;5004158;28;99049;-84
2022/11/17 04:28:36;;;;;;;5.20;4.57;;;;;;;8.68;66.09;99563.28;5042135;27;101905;-83
2022/11/17 04:31:13;;;;;;;4.77;4.27;;;;;;;8.68;66.28;99555.06;5042412;27;96878;-85
2022/11/17 04:33:52;;;;;;;4.50;3.97;;;;;;;8.67;66.19;99556.31;5013072;27;97036;-84
2022/11/17 04:36:23;;;;;;;6.50;4.90;;;;;;;8.64;66.06;99535.41;5019816;27;97137;-84
2022/11/17 04:38:51;;;;;;;4.87;4.20;;;;;;;8.65;66.37;99549.84;5021937;27;97491;-82
2022/11/17 04:44:04;;;;;;;4.70;4.20;;;;;;;8.65;65.89;99533.41;5039450;27;96822;-85
2022/11/17 04:46:32;;;;;;;5.60;4.97;;;;;;;8.61;65.96;99530.91;5021312;27;96954;-85
2022/11/17 04:48:58;;;;;;;5.37;4.60;;;;;;;8.60;66.34;99537.66;5032058;27;97538;-85
2022/11/17 04:51:24;;;;;;;7.60;5.83;;;;;;;8.57;66.07;99548.88;5036495;27;98629;-81
2022/11/17 04:53:51;;;;;;;5.33;4.33;;;;;;;8.55;66.13;99530.19;5036468;27;96923;-85
2022/11/17 04:56:18;;;;;;;6.30;4.87;;;;;;;8.54;66.07;99539.66;5034580;27;97334;-84
2022/11/17 04:58:43;;;;;;;5.03;4.50;;;;;;;8.54;66.22;99539.66;5018867;27;99978;-83
2022/11/17 05:01:12;;;;;;;6.70;3.80;;;;;;;8.55;66.20;99552.13;5009300;27;98422;-88
2022/11/17 05:03:39;;;;;;;5.57;4.70;;;;;;;8.59;66.35;99533.41;5024203;27;97173;-85
2022/11/17 05:06:05;;;;;;;4.70;4.17;;;;;;;8.56;66.10;99530.94;5035582;27;97395;-83
2022/11/17 05:08:30;;;;;;;4.37;4.00;;;;;;;8.59;66.27;99529.91;5021141;28;97389;-83
2022/11/17 05:13:41;;;;;;;8.60;5.27;;;;;;;8.55;66.06;99537.66;5038888;27;97208;-84
2022/11/17 05:18:50;;;;;;;5.30;4.47;;;;;;;8.49;65.98;99518.53;5035090;27;101553;-82
2022/11/17 05:21:15;;;;;;;5.70;4.67;;;;;;;8.50;66.18;99517.25;5021424;27;98691;-85
2022/11/17 05:23:53;;;;;;;7.13;5.23;;;;;;;8.52;66.10;99527.72;5032118;27;96986;-83
2022/11/17 05:26:30;;;;;;;6.57;4.83;;;;;;;8.52;65.88;99520.22;5044002;27;97264;-85
2022/11/17 05:28:58;;;;;;;6.80;5.40;;;;;;;8.51;65.80;99505.06;5056053;27;103514;-86
2022/11/17 05:31:25;;;;;;;6.40;5.00;;;;;;;8.51;66.10;99520.75;5025420;27;97488;-81
2022/11/17 05:33:51;;;;;;;6.90;5.27;;;;;;;8.46;66.19;99505.81;5034540;27;96649;-86
2022/11/17 05:36:18;;;;;;;5.97;5.13;;;;;;;8.50;66.32;99514.50;5047394;27;96885;-81
2022/11/17 05:38:46;;;;;;;8.53;6.50;;;;;;;8.45;66.00;99498.09;5040069;27;97489;-87
2022/11/17 05:41:12;;;;;;;6.90;5.40;;;;;;;8.49;66.16;99504.06;5037076;27;96899;-82
2022/11/17 05:43:38;;;;;;;8.13;6.10;;;;;;;8.49;66.03;99521.25;5035120;27;97142;-83
2022/11/17 05:46:04;;;;;;;7.17;5.90;;;;;;;8.53;66.08;99493.56;5043279;27;96698;-85
2022/11/17 05:48:29;;;;;;;7.70;6.17;;;;;;;8.49;65.87;99495.84;5025629;27;97533;-83
2022/11/17 05:50:55;;;;;;;6.63;6.03;;;;;;;8.46;66.14;99500.34;5026307;27;97177;-82
2022/11/17 05:53:22;;;;;;;6.70;5.40;;;;;;;8.47;66.09;99501.84;5023228;27;96964;-85
2022/11/17 05:55:48;;;;;;;8.03;5.87;;;;;;;8.48;66.02;99497.09;5021853;27;97322;-82
2022/11/17 05:58:28;;;;;;;7.30;5.40;;;;;;;8.48;65.83;99494.34;5029860;27;99991;-82
2022/11/17 06:00:56;;;;;;;7.53;6.50;;;;;;;8.45;66.01;99507.09;5024526;27;100538;-85
2022/11/17 06:03:27;;;;;;;7.83;5.40;;;;;;;8.48;65.94;99503.31;5042172;27;96816;-82
2022/11/17 06:05:53;;;;;;;5.97;5.37;;;;;;;8.48;65.78;99502.56;5042543;27;97119;-86
2022/11/17 06:08:19;;;;;;;7.13;5.67;;;;;;;8.47;65.91;99501.09;5041786;27;96858;-85
2022/11/17 06:10:45;;;;;;;7.17;6.43;;;;;;;8.46;65.87;99492.13;5032917;27;97526;-82
2022/11/17 06:13:10;;;;;;;13.93;7.07;;;;;;;8.49;65.78;99482.91;5025683;27;96765;-83
2022/11/17 06:15:37;;;;;;;8.00;6.50;;;;;;;8.49;65.83;99523.25;5050100;27;97373;-82
2022/11/17 06:18:13;;;;;;;9.50;7.20;;;;;;;8.50;65.67;99495.34;5043668;27;97175;-84
2022/11/17 06:20:44;;;;;;;11.43;7.43;;;;;;;8.46;65.67;99483.91;5044695;27;101974;-83
2022/11/17 06:23:11;;;;;;;9.30;6.97;;;;;;;8.41;65.67;99503.13;5021100;27;96901;-82
2022/11/17 06:25:38;;;;;;;9.47;6.50;;;;;;;8.41;65.71;99490.13;5022685;27;96716;-83
2022/11/17 06:28:07;;;;;;;12.60;7.80;;;;;;;8.39;65.65;99475.47;5041017;27;96882;-82
2022/11/17 06:30:34;;;;;;;10.17;7.60;;;;;;;8.32;66.05;99496.66;5002803;27;97483;-85
2022/11/17 06:33:01;;;;;;;8.97;7.17;;;;;;;8.37;65.73;99503.38;5014324;27;97121;-84
2022/11/17 06:35:32;;;;;;;9.20;6.93;;;;;;;8.40;65.71;99502.38;5025538;27;97231;-85
2022/11/17 06:38:00;;;;;;;10.53;7.80;;;;;;;8.36;65.78;99493.66;5021227;27;97099;-85
2022/11/17 06:40:26;;;;;;;13.17;8.57;;;;;;;8.36;65.79;99509.34;5035965;27;97284;-86
2022/11/17 06:43:09;;;;;;;9.60;7.40;;;;;;;8.32;65.83;99482.22;5040410;27;96879;-86
2022/11/17 06:45:40;;;;;;;10.00;7.53;;;;;;;8.24;65.92;99476.50;5041224;27;97034;-87
2022/11/17 06:48:07;;;;;;;10.23;7.83;;;;;;;8.20;66.11;99492.44;5024119;27;98787;-83
2022/11/17 06:50:34;;;;;;;11.40;7.63;;;;;;;8.21;66.04;99504.16;5035735;27;97195;-85
2022/11/17 06:53:01;;;;;;;9.20;7.10;;;;;;;8.24;66.06;99481.22;5033980;27;97300;-84
2022/11/17 06:55:28;;;;;;;10.63;7.40;;;;;;;8.23;65.85;99487.97;5043402;27;97372;-83
2022/11/17 06:58:07;;;;;;;10.17;7.80;;;;;;;8.23;65.79;99498.91;5038868;27;97197;-86
2022/11/17 07:00:35;;;;;;;12.80;8.70;;;;;;;8.19;65.70;99477.25;5024495;27;98395;-82
2022/11/17 07:03:09;;;;;;;13.63;8.90;;;;;;;8.16;65.54;99480.25;5014480;27;97316;-84
2022/11/17 07:05:36;;;;;;;10.27;7.40;;;;;;;8.14;65.78;99490.97;5007370;28;96924;-84
2022/11/17 07:08:04;;;;;;;12.60;8.40;;;;;;;8.13;65.91;99489.47;5033249;27;98282;-83
2022/11/17 07:10:31;;;;;;;13.70;9.10;;;;;;;8.13;65.72;99486.72;5026001;27;98228;-83
2022/11/17 07:12:56;;;;;;;12.27;8.33;;;;;;;8.12;65.63;99490.75;5010030;27;97607;-83
2022/11/17 07:15:22;;;;;;;11.63;8.13;;;;;;;8.10;65.86;99479.53;5041655;27;97025;-84
2022/11/17 07:17:48;;;;;;;11.27;8.40;;;;;;;8.11;65.92;99478.28;5012180;27;99176;-83
2022/11/17 07:20:14;;;;;;;14.47;9.03;;;;;;;8.10;65.87;99479.53;5002529;27;98121;-86
2022/11/17 07:22:40;;;;;;;11.13;8.07;;;;;;;8.14;65.74;99485.50;5013714;27;96781;-85
2022/11/17 07:25:06;;;;;;;10.37;7.60;;;;;;;8.14;65.52;99485.50;5041953;27;96880;-83
2022/11/17 07:27:32;;;;;;;11.07;8.37;;;;;;;8.07;65.92;99470.34;5042272;27;98341;-82
2022/11/17 07:29:57;;;;;;;16.43;8.40;;;;;;;8.06;66.08;99462.63;5022369;27;97063;-83
2022/11/17 07:32:23;;;;;;;11.67;8.50;;;;;;;8.05;65.91;99474.81;5011003;27;98523;-85
2022/11/17 07:34:49;;;;;;;8.83;7.40;;;;;;;8.01;66.04;99471.59;5024533;27;97229;-83
2022/11/17 07:37:14;;;;;;;12.60;9.60;;;;;;;7.99;65.89;99482.31;5012354;27;97440;-85
2022/11/17 07:39:40;;;;;;;12.67;9.73;;;;;;;7.99;65.88;99460.41;5024535;27;97204;-83
2022/11/17 07:42:05;;;;;;;12.97;8.57;;;;;;;7.99;66.22;99458.41;5043804;27;96924;-82
2022/11/17 07:44:31;;;;;;;15.97;9.50;;;;;;;7.99;66.10;99468.63;5022943;27;97170;-84
2022/11/17 07:46:56;;;;;;;15.57;9.80;;;;;;;7.96;66.24;99470.38;5009344;27;97412;-84
2022/11/17 07:49:22;;;;;;;15.30;9.60;;;;;;;7.89;65.96;99481.06;5019878;27;97160;-84
2022/11/17 07:51:47;;;;;;;12.80;9.43;;;;;;;7.86;66.27;99488.31;5006993;27;97404;-83
2022/11/17 07:54:13;;;;;;;13.50;9.40;;;;;;;7.85;66.32;99469.66;5017660;27;96871;-85
2022/11/17 07:56:39;;;;;;;12.47;9.67;;;;;;;7.78;66.47;99481.84;5020380;27;99566;-82
2022/11/17 07:59:04;;;;;;;13.07;8.47;;;;;;;7.82;66.35;99473.41;5036334;27;97039;-83
2022/11/17 08:01:30;;;;;;;14.07;8.80;;;;;;;7.82;66.38;99498.03;5018717;28;98076;-84
2022/11/17 08:03:55;;;;;;;14.77;8.97;;;;;;;7.79;66.34;99460.72;5035057;27;97178;-85
2022/11/17 08:06:22;;;;;;;12.10;8.33;;;;;;;7.80;66.36;99471.16;5023851;27;98115;-85
2022/11/17 08:08:48;;;;;;;10.83;8.47;;;;;;;7.81;66.47;99480.88;5022457;27;97338;-83
2022/11/17 08:11:14;;;;;;;15.27;9.67;;;;;;;7.79;66.59;99472.41;5018719;27;97068;-85
2022/11/17 08:13:40;;;;;;;12.50;9.37;;;;;;;7.78;66.33;99483.84;5032377;27;96946;-82
2022/11/17 08:16:07;;;;;;;13.67;8.90;;;;;;;7.75;66.44;99460.22;5022785;27;96877;-84
2022/11/17 08:18:32;;;;;;;11.97;8.93;;;;;;;7.73;66.43;99462.72;5021505;27;99480;-83
2022/11/17 08:21:06;;;;;;;14.30;9.70;;;;;;;7.74;66.74;99464.19;5032680;27;96645;-83
2022/11/17 08:23:33;;;;;;;11.53;8.73;;;;;;;7.75;66.46;99460.97;5022147;27;97190;-83
2022/11/17 08:25:59;;;;;;;11.50;8.87;;;;;;;7.69;66.77;99452.00;5018489;27;97585;-83
2022/11/17 08:28:25;;;;;;;12.00;8.50;;;;;;;7.70;66.56;99458.25;5043536;27;100601;-82
2022/11/17 08:30:50;;;;;;;12.97;9.00;;;;;;;7.72;66.88;99455.75;5021002;27;96786;-82
2022/11/17 08:33:16;;;;;;;10.97;8.37;;;;;;;7.69;66.85;99456.75;5040437;27;97377;-81
2022/11/17 08:35:41;;;;;;;13.23;8.63;;;;;;;7.65;66.75;99445.31;5045027;27;96866;-80
2022/11/17 08:38:10;;;;;;;11.40;8.33;;;;;;;7.68;66.52;99430.63;5018512;27;96889;-81
2022/11/17 08:40:36;;;;;;;11.30;8.23;;;;;;;7.64;66.81;99438.34;5024538;27;97822;-81
2022/11/17 08:43:01;;;;;;;10.77;8.07;;;;;;;7.67;66.60;99426.38;5025288;27;97857;-85
2022/11/17 08:45:27;;;;;;;10.80;7.77;;;;;;;7.64;66.75;99444.56;5022027;27;97652;-82
2022/11/17 08:47:55;;;;;;;10.10;7.50;;;;;;;7.64;66.57;99408.25;5017834;27;97424;-85
2022/11/17 08:50:20;;;;;;;10.70;7.13;;;;;;;7.60;67.03;99399.56;5038633;27;97168;-82
2022/11/17 08:52:47;;;;;;;10.13;7.50;;;;;;;7.47;66.92;99402.78;5053928;27;97012;-82
2022/11/17 08:55:13;;;;;;;8.40;6.80;;;;;;;7.52;66.88;99394.59;5009913;27;98916;-83
2022/11/17 08:57:38;;;;;;;10.07;7.17;;;;;;;7.50;67.03;99375.19;5018495;28;97240;-85
2022/11/17 09:00:05;;;;;;;12.50;8.50;;;;;;;7.49;67.12;99379.16;5039643;27;96702;-80
2022/11/17 09:02:31;;;;;;;7.67;5.90;;;;;;;7.45;67.16;99370.47;5043390;27;97453;-83
2022/11/17 09:04:57;;;;;;;10.03;7.07;;;;;;;7.46;67.16;99399.34;5029418;27;99655;-83
2022/11/17 09:07:22;;;;;;;11.10;7.77;;;;;;;7.48;67.15;99391.38;5023214;27;96924;-81
2022/11/17 09:09:48;;;;;;;11.50;7.60;;;;;;;7.44;67.25;99403.81;5023768;27;97115;-82
2022/11/17 09:12:14;;;;;;;8.27;6.60;;;;;;;7.45;67.09;99386.91;5043248;27;97024;-81
2022/11/17 09:14:39;;;;;;;7.87;6.53;;;;;;;7.47;67.19;99389.88;5042136;27;97696;-82
2022/11/17 09:17:05;;;;;;;13.60;7.40;;;;;;;7.49;67.12;99383.91;5043853;27;97597;-83
2022/11/17 09:19:30;;;;;;;7.97;5.90;;;;;;;7.49;67.20;99387.38;5034834;27;96930;-82
2022/11/17 09:21:56;;;;;;;9.17;7.10;;;;;;;7.48;67.24;99376.94;5045027;27;96997;-83
2022/11/17 09:24:22;;;;;;;7.13;6.00;;;;;;;7.45;67.27;99386.91;5028697;27;98289;-82
2022/11/17 09:26:48;;;;;;;9.10;7.17;;;;;;;7.46;67.45;99369.25;5042217;27;97249;-84
2022/11/17 09:29:13;;;;;;;7.87;5.77;;;;;;;7.45;67.65;99383.41;5036805;27;96796;-81
2022/11/17 09:31:39;;;;;;;9.40;6.90;;;;;;;7.46;67.43;99366.50;5045872;27;97414;-83
2022/11/17 09:34:04;;;;;;;9.17;6.60;;;;;;;7.45;67.37;99359.53;5028838;27;99101;-82
2022/11/17 09:36:30;;;;;;;8.53;5.90;;;;;;;7.49;67.25;99362.03;5025368;27;97331;-83
2022/11/17 09:38:55;;;;;;;7.63;5.93;;;;;;;7.51;67.33;99375.94;5022335;27;96892;-82
2022/11/17 09:41:26;;;;;;;6.60;5.30;;;;;;;7.49;67.59;99370.97;5025590;27;97389;-82
2022/11/17 09:44:10;;;;;;;9.10;6.10;;;;;;;7.48;68.00;99383.16;5024954;27;100613;-81
2022/11/17 09:46:38;;;;;;;5.73;5.00;;;;;;;7.50;67.78;99369.72;5023833;27;102248;-82
2022/11/17 09:49:31;;;;;;;6.77;5.50;;;;;;;7.48;67.86;99420.72;5026092;27;98170;-82
2022/11/17 09:52:02;;;;;;;6.57;5.53;;;;;;;7.45;67.64;99384.16;5033097;27;97150;-83
2022/11/17 09:54:53;;;;;;;6.90;5.57;;;;;;;7.48;67.80;99371.47;5043023;27;97933;-83
2022/11/17 09:57:30;;;;;;;6.63;4.97;;;;;;;7.48;67.47;99393.34;5018022;27;103779;-83
2022/11/17 10:00:18;;;;;;;7.67;5.07;;;;;;;7.49;67.76;99384.63;5039081;27;96890;-82
2022/11/17 10:02:44;;;;;;;6.37;5.23;;;;;;;7.50;67.81;99386.16;5023647;27;96931;-82
2022/11/17 10:05:28;;;;;;;8.43;5.93;;;;;;;7.55;67.71;99376.44;5026154;27;99926;-82
2022/11/17 10:08:00;;;;;;;6.67;4.60;;;;;;;7.57;67.45;99399.31;5041368;27;100579;-81
2022/11/17 10:10:45;;;;;;;6.30;5.00;;;;;;;7.57;67.56;99393.84;5023122;27;97440;-83
2022/11/17 10:13:23;;;;;;;4.40;3.87;;;;;;;7.64;67.47;99384.38;5042208;27;96713;-83
2022/11/17 10:15:54;;;;;;;6.03;4.20;;;;;;;7.63;67.51;99398.53;5010602;27;100247;-83
2022/11/17 10:18:20;;;;;;;6.30;4.23;;;;;;;7.63;67.34;99395.78;5026630;27;97157;-82
2022/11/17 10:20:45;;;;;;;5.20;4.33;;;;;;;7.66;67.48;99403.00;5038490;27;96792;-84
2022/11/17 10:23:13;;;;;;;7.07;4.37;;;;;;;7.64;67.72;99383.63;5032048;27;97505;-83
2022/11/17 10:25:45;;;;;;;4.93;4.13;;;;;;;7.65;67.32;99409.72;5029259;27;97217;-81
2022/11/17 10:28:30;;;;;;;7.73;4.43;;;;;;;7.63;68.37;99390.31;5025669;27;100831;-82
2022/11/17 10:31:10;;;;;;;4.70;4.07;;;;;;;7.60;67.61;99383.13;5028932;27;98993;-81
2022/11/17 10:33:37;;;;;;;7.80;4.30;;;;;;;7.58;67.89;99391.81;5044303;27;96702;-82
2022/11/17 10:36:06;;;;;;;4.30;3.90;;;;;;;7.59;67.92;99396.06;5042491;27;98380;-82
2022/11/17 10:38:32;;;;;;;5.50;4.30;;;;;;;7.58;67.39;99398.06;5043289;27;97122;-82
2022/11/17 10:41:01;;;;;;;4.00;3.60;;;;;;;7.58;67.63;99416.47;5033319;27;97324;-81
2022/11/17 10:43:35;;;;;;;5.07;4.23;;;;;;;7.63;67.74;99387.59;5031619;27;97082;-84
2022/11/17 10:46:05;;;;;;;5.43;4.37;;;;;;;7.64;67.74;99389.84;5018779;27;100647;-83
2022/11/17 10:48:32;;;;;;;4.10;3.77;;;;;;;7.65;67.82;99390.56;5011014;27;96847;-83
2022/11/17 10:51:00;;;;;;;4.60;4.20;;;;;;;7.68;67.58;99387.59;5026395;27;97200;-82
2022/11/17 10:53:30;;;;;;;4.33;3.90;;;;;;;7.70;67.51;99384.34;5040355;27;96894;-81
2022/11/17 10:56:01;;;;;;;3.43;3.13;;;;;;;7.70;67.49;99387.81;5037093;27;96871;-82
2022/11/17 10:58:32;;;;;;;3.67;3.37;;;;;;;7.72;67.62;99384.56;5022439;27;98284;-81
2022/11/17 11:01:02;;;;;;;4.10;3.70;;;;;;;7.73;67.57;99389.56;5040530;27;96830;-82
2022/11/17 11:03:31;;;;;;;3.47;3.20;;;;;;;7.74;67.54;99396.50;5027145;27;97069;-81
2022/11/17 11:06:20;;;;;;;4.67;3.37;;;;;;;7.75;67.59;99383.56;5048493;27;98019;-83
2022/11/17 11:08:57;;;;;;;3.90;3.60;;;;;;;7.79;67.72;99375.84;5031776;27;102863;-82
2022/11/17 11:11:43;;;;;;;3.43;3.13;;;;;;;7.77;68.00;99376.34;5039828;27;98999;-83
2022/11/17 11:14:21;;;;;;;3.53;3.07;;;;;;;7.76;68.10;99371.38;5026415;27;97377;-84
2022/11/17 11:16:49;;;;;;;4.07;3.30;;;;;;;7.75;68.07;99361.69;5026928;27;99887;-82
2022/11/17 11:19:18;;;;;;;3.73;3.30;;;;;;;7.79;67.96;99360.16;5039943;27;96916;-82
2022/11/17 11:22:06;;;;;;;3.80;3.40;;;;;;;7.86;67.96;99372.59;5033713;27;98100;-82
2022/11/17 11:24:49;;;;;;;3.50;3.20;;;;;;;7.87;68.05;99371.31;5039990;27;97795;-82
2022/11/17 11:27:52;;;;;;;5.00;3.77;;;;;;;7.88;67.89;99364.63;5033675;27;104130;-83
2022/11/17 11:30:18;;;;;;;3.50;3.20;;;;;;;7.86;67.83;99356.16;5021148;27;102468;-85
2022/11/17 11:33:18;;;;;;;4.80;3.53;;;;;;;7.84;68.39;99367.59;5021421;27;97344;-82
2022/11/17 11:35:49;;;;;;;4.43;3.00;;;;;;;7.84;67.87;99359.38;5022865;27;96924;-83
2022/11/17 11:38:17;;;;;;;3.80;3.50;;;;;;;7.87;68.06;99365.84;5043090;27;100816;-82
2022/11/17 11:41:07;;;;;;;3.67;3.23;;;;;;;7.91;67.66;99363.59;5028788;27;103815;-82
2022/11/17 11:43:56;;;;;;;3.53;3.23;;;;;;;7.98;67.71;99352.09;5012834;27;97665;-83
2022/11/17 11:46:57;;;;;;;4.60;3.80;;;;;;;7.98;67.96;99363.06;5025210;27;98693;-83
2022/11/17 11:49:48;;;;;;;4.20;3.00;;;;;;;8.03;68.12;99354.84;5015863;27;103042;-84
2022/11/17 11:52:20;;;;;;;4.47;3.40;;;;;;;8.03;67.91;99365.03;5017693;27;100621;-83
2022/11/17 11:54:53;;;;;;;4.17;3.20;;;;;;;8.03;67.99;99362.31;5039934;27;97251;-83
2022/11/17 11:57:24;;;;;;;4.23;3.70;;;;;;;8.04;68.00;99358.28;5028566;27;97279;-83
2022/11/17 12:00:07;;;;;;;4.20;3.40;;;;;;;8.09;68.31;99357.53;5032596;27;98554;-84
2022/11/17 12:02:42;;;;;;;3.30;3.00;;;;;;;8.12;67.92;99353.78;5016327;27;100782;-85
2022/11/17 12:05:32;;;;;;;3.60;3.17;;;;;;;8.17;68.17;99364.69;5028500;27;99310;-85
2022/11/17 12:08:13;;;;;;;4.60;4.13;;;;;;;8.19;68.26;99356.00;5027503;27;97778;-82
2022/11/17 12:10:53;;;;;;;4.13;3.73;;;;;;;8.16;68.12;99354.25;5025372;27;102763;-83
2022/11/17 12:13:20;;;;;;;3.67;3.37;;;;;;;8.18;67.92;99343.53;5021802;27;102378;-85
2022/11/17 12:15:46;;;;;;;3.60;3.30;;;;;;;8.18;67.81;99349.00;5025353;27;96802;-83
2022/11/17 12:18:18;;;;;;;3.23;3.03;;;;;;;8.22;68.10;99344.00;5030766;27;96799;-83
2022/11/17 12:20:52;;;;;;;4.50;3.17;;;;;;;8.25;67.96;99351.22;5035276;27;97237;-82